createdAt,value
2019-05-03T00:01:25.427Z,25.90
2019-05-03T00:03:54.687Z,27.37
2019-05-03T00:06:24.227Z,25.43
2019-05-03T00:08:53.707Z,26.23
2019-05-03T00:11:22.924Z,22.17
2019-05-03T00:13:52.591Z,22.03
2019-05-03T00:16:27.245Z,25.93
2019-05-03T00:18:56.490Z,23.63
2019-05-03T00:21:25.547Z,23.57
2019-05-03T00:23:54.808Z,24.17
2019-05-03T00:26:24.048Z,27.33
2019-05-03T00:28:53.304Z,25.33
2019-05-03T00:31:23.385Z,25.93
2019-05-03T00:34:02.249Z,23.87
2019-05-03T00:36:42.668Z,23.07
2019-05-03T00:39:24.050Z,27.73
2019-05-03T00:41:53.592Z,23.70
2019-05-03T00:44:22.835Z,25.70
2019-05-03T00:46:53.707Z,25.10
2019-05-03T00:49:23.668Z,26.00
2019-05-03T00:51:52.895Z,23.57
2019-05-03T00:54:22.938Z,24.73
2019-05-03T00:56:56.835Z,28.00
2019-05-03T00:59:26.090Z,28.33
2019-05-03T01:01:55.315Z,28.53
2019-05-03T01:04:24.566Z,26.97
2019-05-03T01:06:55.594Z,29.37
2019-05-03T01:09:26.523Z,30.13
2019-05-03T01:11:55.740Z,30.27
2019-05-03T01:14:25.310Z,29.73
2019-05-03T01:16:55.783Z,28.77
2019-05-03T01:19:25.217Z,28.73
2019-05-03T01:21:54.457Z,30.63
2019-05-03T01:24:26.139Z,29.63
2019-05-03T01:26:56.797Z,30.80
2019-05-03T01:29:26.008Z,30.17
2019-05-03T01:31:57.166Z,30.60
2019-05-03T01:34:26.392Z,31.43
2019-05-03T01:36:55.632Z,29.77
2019-05-03T01:39:25.077Z,30.83
2019-05-03T01:41:54.865Z,32.23
2019-05-03T01:44:24.093Z,30.33
2019-05-03T01:46:54.976Z,29.63
2019-05-03T01:49:43.732Z,30.80
2019-05-03T01:52:21.901Z,31.40
2019-05-03T01:54:52.120Z,29.57
2019-05-03T01:57:22.177Z,32.23
2019-05-03T01:59:52.062Z,31.60
2019-05-03T02:02:41.960Z,29.90
2019-05-03T02:05:33.284Z,32.10
2019-05-03T02:08:02.569Z,30.90
2019-05-03T02:10:32.212Z,32.73
2019-05-03T02:13:01.769Z,33.70
2019-05-03T02:15:32.928Z,33.67
2019-05-03T02:18:02.668Z,31.70
2019-05-03T02:20:32.449Z,31.67
2019-05-03T02:23:02.762Z,30.97
2019-05-03T02:25:32.394Z,31.90
2019-05-03T02:28:02.040Z,32.13
2019-05-03T02:30:33.232Z,30.97
2019-05-03T02:33:04.033Z,32.23
2019-05-03T02:35:33.590Z,29.10
2019-05-03T02:38:03.750Z,31.40
2019-05-03T02:40:33.801Z,35.87
2019-05-03T02:43:09.707Z,34.23
2019-05-03T02:45:51.574Z,32.50
2019-05-03T02:48:30.521Z,32.43
2019-05-03T02:50:59.769Z,33.50
2019-05-03T02:53:29.013Z,34.50
2019-05-03T02:56:15.027Z,37.83
2019-05-03T02:58:40.109Z,35.50
2019-05-03T03:01:09.337Z,33.77
2019-05-03T03:03:40.572Z,34.67
2019-05-03T03:06:10.047Z,35.90
2019-05-03T03:08:39.709Z,34.23
2019-05-03T03:11:09.634Z,35.97
2019-05-03T03:13:39.596Z,34.87
2019-05-03T03:16:11.173Z,38.20
2019-05-03T03:18:41.528Z,38.13
2019-05-03T03:21:16.336Z,34.77
2019-05-03T03:24:07.317Z,35.77
2019-05-03T03:26:42.955Z,36.27
2019-05-03T03:29:16.011Z,38.07
2019-05-03T03:31:58.516Z,36.33
2019-05-03T03:34:32.067Z,37.23
2019-05-03T03:37:06.560Z,35.47
2019-05-03T03:39:36.226Z,37.83
2019-05-03T03:42:06.100Z,37.53
2019-05-03T03:44:36.587Z,32.83
2019-05-03T03:47:06.048Z,37.03
2019-05-03T03:49:37.104Z,39.60
2019-05-03T03:52:10.340Z,39.20
2019-05-03T03:54:42.155Z,38.50
2019-05-03T03:57:15.877Z,38.33
2019-05-03T03:59:45.750Z,44.20
2019-05-03T04:02:16.538Z,39.50
2019-05-03T04:04:46.974Z,41.30
2019-05-03T04:07:16.632Z,45.30
2019-05-03T04:09:46.563Z,45.63
2019-05-03T04:12:16.636Z,54.23
2019-05-03T04:14:57.946Z,47.03
2019-05-03T04:17:58.773Z,52.87
2019-05-03T04:20:35.814Z,55.03
2019-05-03T04:23:05.412Z,61.50
2019-05-03T04:25:35.907Z,60.67
2019-05-03T04:28:05.898Z,64.73
2019-05-03T04:30:37.907Z,64.40
2019-05-03T04:33:07.167Z,63.40
2019-05-03T04:35:36.858Z,71.83
2019-05-03T04:38:06.287Z,68.33
2019-05-03T04:40:36.080Z,71.53
2019-05-03T04:43:06.626Z,65.07
2019-05-03T04:45:36.604Z,66.50
2019-05-03T04:48:06.369Z,67.23
2019-05-03T04:50:36.969Z,70.93
2019-05-03T04:53:06.319Z,65.57
2019-05-03T04:55:36.523Z,67.60
2019-05-03T04:58:06.587Z,63.50
2019-05-03T05:00:39.341Z,57.27
2019-05-03T05:03:08.997Z,59.90
2019-05-03T05:05:39.831Z,64.27
2019-05-03T05:08:09.104Z,60.60
2019-05-03T05:10:41.625Z,61.80
2019-05-03T05:13:10.849Z,61.47
2019-05-03T05:15:40.479Z,56.90
2019-05-03T05:18:26.354Z,60.03
2019-05-03T05:21:15.033Z,54.70
2019-05-03T05:23:58.957Z,47.40
2019-05-03T05:26:35.552Z,42.17
2019-05-03T05:29:08.605Z,45.77
2019-05-03T05:31:37.837Z,45.23
2019-05-03T05:34:08.919Z,48.27
2019-05-03T05:36:45.255Z,51.60
2019-05-03T05:39:18.713Z,54.37
2019-05-03T05:41:47.841Z,53.30
2019-05-03T05:44:17.091Z,55.37
2019-05-03T05:47:25.529Z,59.27
2019-05-03T05:49:59.025Z,58.23
2019-05-03T05:52:28.584Z,59.90
2019-05-03T05:55:06.791Z,59.37
2019-05-03T05:57:46.402Z,55.93
2019-05-03T06:00:21.932Z,54.37
2019-05-03T06:02:51.443Z,51.90
2019-05-03T06:05:21.098Z,55.17
2019-05-03T06:08:01.316Z,53.77
2019-05-03T06:10:52.767Z,52.77
2019-05-03T06:13:29.567Z,50.63
2019-05-03T06:16:15.364Z,52.07
2019-05-03T06:19:02.298Z,53.60
2019-05-03T06:21:39.864Z,49.93
2019-05-03T06:24:17.532Z,51.97
2019-05-03T06:26:54.627Z,45.87
2019-05-03T06:29:24.771Z,49.63
2019-05-03T06:32:21.308Z,49.03
2019-05-03T06:34:50.878Z,46.47
2019-05-03T06:37:22.117Z,46.67
2019-05-03T06:39:51.483Z,41.37
2019-05-03T06:42:22.762Z,43.00
2019-05-03T06:44:51.753Z,39.90
2019-05-03T06:47:21.015Z,40.30
2019-05-03T06:49:50.313Z,40.50
2019-05-03T06:52:24.547Z,37.90
2019-05-03T06:54:50.507Z,38.87
2019-05-03T06:57:20.038Z,40.83
2019-05-03T07:00:11.000Z,38.43
2019-05-03T07:02:59.238Z,41.33
2019-05-03T07:05:48.745Z,45.30
2019-05-03T07:08:35.595Z,47.10
2019-05-03T07:11:05.619Z,47.70
2019-05-03T07:13:35.162Z,47.43
2019-05-03T07:16:04.750Z,51.43
2019-05-03T07:18:35.171Z,47.67
2019-05-03T07:21:06.456Z,52.90
2019-05-03T07:23:36.566Z,46.90
2019-05-03T07:26:05.787Z,44.33
2019-05-03T07:28:46.322Z,45.83
2019-05-03T07:31:06.570Z,46.83
2019-05-03T07:33:36.197Z,43.60
2019-05-03T07:36:07.907Z,45.17
2019-05-03T07:38:37.478Z,42.67
2019-05-03T07:41:06.798Z,37.50
2019-05-03T07:43:36.287Z,41.30
2019-05-03T07:46:06.045Z,40.50
2019-05-03T07:48:35.458Z,37.07
2019-05-03T07:51:05.485Z,40.83
2019-05-03T07:53:35.950Z,31.67
2019-05-03T07:56:14.939Z,26.03
2019-05-03T07:58:59.059Z,25.57
2019-05-03T08:01:30.502Z,25.13
2019-05-03T08:04:01.196Z,22.17
2019-05-03T08:06:30.411Z,23.83
2019-05-03T08:09:02.129Z,20.43
2019-05-03T08:11:31.649Z,21.90
2019-05-03T08:14:00.893Z,24.77
2019-05-03T08:16:30.113Z,25.13
2019-05-03T08:18:59.547Z,25.93
2019-05-03T08:21:28.797Z,19.50
2019-05-03T08:23:58.053Z,16.17
2019-05-03T08:26:29.107Z,14.53
2019-05-03T08:28:58.360Z,15.67
2019-05-03T08:31:49.762Z,13.90
2019-05-03T08:34:49.871Z,15.03
2019-05-03T08:37:45.317Z,15.33
2019-05-03T08:40:15.933Z,15.43
2019-05-03T08:42:45.193Z,16.03
2019-05-03T08:45:14.889Z,29.93
2019-05-03T08:47:45.054Z,31.47
2019-05-03T08:50:20.943Z,34.73
2019-05-03T08:52:55.517Z,23.90
2019-05-03T08:55:24.967Z,27.30
2019-05-03T08:57:55.173Z,43.77
2019-05-03T09:00:27.940Z,32.77
2019-05-03T09:02:58.671Z,46.03
2019-05-03T09:05:28.492Z,43.87
2019-05-03T09:07:57.769Z,21.13
2019-05-03T09:10:31.801Z,24.70
2019-05-03T09:13:07.775Z,17.63
2019-05-03T09:15:37.439Z,24.23
2019-05-03T09:18:06.870Z,23.53
2019-05-03T09:20:36.131Z,18.67
2019-05-03T09:23:08.423Z,16.52
2019-05-03T09:25:38.019Z,22.75
2019-05-03T09:28:07.386Z,14.33
2019-05-03T09:30:36.709Z,15.80
2019-05-03T09:33:09.059Z,15.00
2019-05-03T09:35:37.394Z,13.07
2019-05-03T09:38:06.921Z,13.20
2019-05-03T09:40:36.172Z,13.00
2019-05-03T09:43:05.396Z,13.93
2019-05-03T09:45:35.296Z,13.43
2019-05-03T09:48:05.705Z,14.90
2019-05-03T09:50:35.938Z,14.30
2019-05-03T09:53:09.063Z,13.33
2019-05-03T09:55:40.476Z,13.50
2019-05-03T09:58:09.700Z,12.00
2019-05-03T10:00:38.946Z,12.57
2019-05-03T10:03:08.179Z,15.53
2019-05-03T10:05:37.431Z,13.00
2019-05-03T10:08:06.670Z,13.07
2019-05-03T10:10:54.149Z,13.00
2019-05-03T10:13:26.736Z,13.03
2019-05-03T10:15:54.937Z,13.43
2019-05-03T10:18:25.466Z,13.47
2019-05-03T10:20:56.112Z,14.40
2019-05-03T10:23:38.811Z,13.83
2019-05-03T10:26:08.802Z,15.47
2019-05-03T10:28:38.147Z,11.40
2019-05-03T10:31:08.041Z,13.43
2019-05-03T10:33:45.501Z,10.93
2019-05-03T10:36:15.550Z,9.40
2019-05-03T10:38:45.983Z,11.23
2019-05-03T10:41:16.471Z,9.67
2019-05-03T10:43:45.931Z,9.73
2019-05-03T10:46:15.903Z,6.63
2019-05-03T10:48:47.632Z,5.80
2019-05-03T10:51:16.888Z,3.20
2019-05-03T10:53:49.785Z,3.10
2019-05-03T10:56:31.967Z,2.67
2019-05-03T10:59:03.570Z,3.60
2019-05-03T11:01:45.202Z,3.10
2019-05-03T11:04:14.901Z,3.75
2019-05-03T11:06:45.734Z,2.40
2019-05-03T11:09:15.457Z,2.80
2019-05-03T11:11:45.369Z,2.75
2019-05-03T11:14:18.639Z,3.05
2019-05-03T11:16:47.978Z,3.60
2019-05-03T11:19:17.239Z,3.67
2019-05-03T11:21:46.479Z,3.70
2019-05-03T11:24:15.694Z,3.40
2019-05-03T11:26:46.805Z,3.55
2019-05-03T11:29:16.090Z,3.58
2019-05-03T11:31:50.768Z,4.00
2019-05-03T11:34:22.619Z,4.33
2019-05-03T11:37:11.386Z,4.12
2019-05-03T11:39:42.692Z,4.47
2019-05-03T11:42:11.927Z,5.13
2019-05-03T11:44:41.155Z,5.17
2019-05-03T11:47:11.083Z,5.30
2019-05-03T11:49:40.540Z,6.97
2019-05-03T11:52:09.827Z,6.47
2019-05-03T11:54:39.058Z,6.40
2019-05-03T11:57:15.774Z,6.10
2019-05-03T11:59:45.353Z,7.00
2019-05-03T12:02:33.783Z,7.73
2019-05-03T12:05:04.992Z,6.80
2019-05-03T12:07:39.321Z,7.57
2019-05-03T12:10:16.324Z,8.10
2019-05-03T12:12:40.555Z,8.87
2019-05-03T12:15:10.223Z,9.27
2019-05-03T12:17:53.861Z,9.83
2019-05-03T12:20:14.691Z,9.63
2019-05-03T12:22:46.482Z,9.67
2019-05-03T12:25:16.669Z,8.33
2019-05-03T12:27:53.967Z,8.90
2019-05-03T12:30:27.476Z,8.17
2019-05-03T12:32:56.870Z,8.80
2019-05-03T12:35:26.099Z,7.97
2019-05-03T12:37:55.761Z,10.13
2019-05-03T12:40:25.545Z,9.83
2019-05-03T12:42:55.410Z,9.87
2019-05-03T12:45:25.449Z,9.63
2019-05-03T12:47:56.063Z,10.27
2019-05-03T12:50:25.492Z,9.70
2019-05-03T12:52:55.439Z,8.90
2019-05-03T12:55:25.143Z,9.20
2019-05-03T12:57:55.546Z,9.63
2019-05-03T13:00:39.713Z,9.20
2019-05-03T13:03:12.774Z,8.63
2019-05-03T13:05:42.278Z,9.00
2019-05-03T13:08:30.597Z,8.83
2019-05-03T13:11:00.430Z,7.73
2019-05-03T13:13:29.718Z,7.83
2019-05-03T13:15:58.981Z,6.67
2019-05-03T13:18:28.206Z,7.10
2019-05-03T13:20:57.842Z,7.30
2019-05-03T13:23:27.088Z,6.90
2019-05-03T13:25:57.605Z,7.17
2019-05-03T13:28:28.181Z,7.80
2019-05-03T13:30:57.411Z,7.33
2019-05-03T13:33:26.675Z,7.00
2019-05-03T13:35:55.910Z,7.13
2019-05-03T13:38:25.135Z,6.70
2019-05-03T13:40:56.175Z,6.23
2019-05-03T13:43:25.400Z,6.17
2019-05-03T13:45:55.641Z,5.93
2019-05-03T13:48:26.319Z,6.33
2019-05-03T13:50:56.063Z,6.47
2019-05-03T13:53:25.559Z,6.17
2019-05-03T13:55:55.317Z,6.03
2019-05-03T13:58:26.389Z,6.80
2019-05-03T14:00:56.168Z,7.10
2019-05-03T14:03:26.472Z,7.13
2019-05-03T14:05:56.904Z,6.47
2019-05-03T14:08:26.143Z,6.50
2019-05-03T14:10:58.011Z,5.80
2019-05-03T14:13:27.541Z,6.40
2019-05-03T14:15:56.794Z,7.13
2019-05-03T14:18:26.013Z,6.20
2019-05-03T14:21:15.084Z,5.50
2019-05-03T14:24:02.089Z,5.23
2019-05-03T14:26:31.553Z,5.40
2019-05-03T14:29:00.826Z,5.70
2019-05-03T14:31:30.373Z,5.30
2019-05-03T14:33:59.585Z,5.50
2019-05-03T14:36:29.293Z,5.93
2019-05-03T14:38:59.016Z,6.37
2019-05-03T14:41:28.609Z,5.83
2019-05-03T14:44:00.067Z,5.30
2019-05-03T14:46:33.169Z,4.97
2019-05-03T14:49:00.280Z,5.13
2019-05-03T14:51:29.539Z,5.60
2019-05-03T14:54:00.382Z,5.50
2019-05-03T14:56:35.926Z,5.20
2019-05-03T14:59:27.009Z,5.20
2019-05-03T15:02:15.609Z,4.77
2019-05-03T15:04:44.874Z,4.53
2019-05-03T15:07:15.327Z,4.40
2019-05-03T15:09:45.852Z,3.33
2019-05-03T15:12:16.517Z,3.80
2019-05-03T15:14:45.740Z,3.20
2019-05-03T15:17:15.003Z,2.97
2019-05-03T15:19:45.381Z,2.40
2019-05-03T15:22:14.788Z,2.40
2019-05-03T15:24:45.192Z,1.77
2019-05-03T15:27:14.790Z,2.80
2019-05-03T15:29:44.806Z,2.70
2019-05-03T15:32:15.506Z,1.80
2019-05-03T15:34:45.058Z,1.83
2019-05-03T15:37:15.162Z,1.67
2019-05-03T15:39:45.219Z,1.80
2019-05-03T15:42:17.916Z,1.93
2019-05-03T15:45:25.962Z,1.73
2019-05-03T15:48:16.520Z,1.67
2019-05-03T15:50:48.149Z,1.80
2019-05-03T15:53:17.454Z,2.00
2019-05-03T15:55:46.758Z,2.30
2019-05-03T15:58:17.747Z,4.80
2019-05-03T16:00:48.508Z,2.63
2019-05-03T16:03:17.724Z,1.90
2019-05-03T16:05:46.929Z,1.80
2019-05-03T16:08:19.552Z,2.60
2019-05-03T16:10:48.768Z,2.00
2019-05-03T16:13:19.595Z,1.80
2019-05-03T16:15:48.815Z,2.07
2019-05-03T16:18:20.321Z,1.90
2019-05-03T16:20:49.835Z,1.80
2019-05-03T16:23:19.059Z,5.03
2019-05-03T16:25:48.253Z,3.67
2019-05-03T16:28:33.127Z,2.17
2019-05-03T16:31:08.569Z,2.60
2019-05-03T16:33:38.629Z,2.17
2019-05-03T16:36:07.847Z,2.00
2019-05-03T16:38:37.087Z,2.10
2019-05-03T16:41:07.226Z,2.40
2019-05-03T16:43:39.954Z,2.30
2019-05-03T16:46:09.197Z,2.33
2019-05-03T16:48:40.346Z,2.00
2019-05-03T16:51:09.852Z,2.33
2019-05-03T16:53:39.082Z,2.20
2019-05-03T16:56:08.301Z,2.60
2019-05-03T16:58:37.938Z,2.50
2019-05-03T17:01:07.193Z,3.00
2019-05-03T17:03:45.661Z,2.90
2019-05-03T17:06:26.542Z,2.20
2019-05-03T17:09:14.542Z,3.00
2019-05-03T17:11:45.744Z,2.10
2019-05-03T17:14:17.547Z,2.60
2019-05-03T17:16:47.074Z,2.00
2019-05-03T17:19:19.778Z,1.90
2019-05-03T17:21:49.003Z,2.20
2019-05-03T17:24:18.236Z,2.27
2019-05-03T17:26:47.447Z,1.97
2019-05-03T17:29:16.681Z,2.23
2019-05-03T17:31:47.481Z,2.60
2019-05-03T17:34:16.724Z,2.53
2019-05-03T17:36:46.028Z,3.00
2019-05-03T17:39:17.482Z,2.43
2019-05-03T17:42:01.203Z,2.37
2019-05-03T17:44:36.352Z,2.30
2019-05-03T17:47:05.614Z,2.80
2019-05-03T17:49:36.856Z,2.60
2019-05-03T17:52:25.412Z,2.73
2019-05-03T17:55:12.445Z,2.60
2019-05-03T17:57:50.462Z,2.67
2019-05-03T18:00:41.536Z,2.70
2019-05-03T18:03:11.008Z,2.33
2019-05-03T18:05:48.910Z,2.67
2019-05-03T18:08:36.059Z,2.80
2019-05-03T18:11:10.487Z,3.13
2019-05-03T18:13:39.739Z,2.77
2019-05-03T18:16:09.011Z,3.00
2019-05-03T18:18:38.266Z,3.07
2019-05-03T18:21:07.748Z,2.50
2019-05-03T18:23:36.993Z,2.73
2019-05-03T18:26:06.205Z,2.90
2019-05-03T18:28:35.758Z,2.67
2019-05-03T18:31:08.560Z,2.90
2019-05-03T18:33:36.646Z,3.03
2019-05-03T18:36:05.981Z,3.10
2019-05-03T18:38:41.288Z,2.63
2019-05-03T18:41:13.021Z,3.00
2019-05-03T18:44:01.228Z,3.20
2019-05-03T18:46:34.338Z,7.57
2019-05-03T18:49:06.231Z,4.20
2019-05-03T18:51:36.165Z,3.50
2019-05-03T18:54:07.326Z,4.00
2019-05-03T18:56:36.447Z,4.63
2019-05-03T18:59:05.686Z,4.63
2019-05-03T19:01:34.969Z,5.57
2019-05-03T19:04:14.694Z,8.33
2019-05-03T19:06:45.177Z,4.03
2019-05-03T19:09:36.428Z,4.30
2019-05-03T19:12:27.809Z,7.43
2019-05-03T19:14:57.452Z,6.97
2019-05-03T19:17:50.529Z,4.27
2019-05-03T19:20:19.817Z,4.47
2019-05-03T19:22:49.051Z,4.43
2019-05-03T19:25:20.858Z,5.30
2019-05-03T19:27:50.139Z,4.67
2019-05-03T19:30:19.694Z,3.63
2019-05-03T19:32:49.280Z,3.67
2019-05-03T19:35:18.517Z,3.50
2019-05-03T19:37:47.734Z,3.80
2019-05-03T19:40:18.394Z,4.20
2019-05-03T19:42:47.610Z,5.07
2019-05-03T19:45:18.855Z,4.10
2019-05-03T19:47:48.065Z,5.30
2019-05-03T19:50:17.330Z,7.23
2019-05-03T19:53:09.377Z,10.27
2019-05-03T19:55:38.620Z,6.97
2019-05-03T19:58:07.835Z,6.30
2019-05-03T20:00:47.918Z,6.90
2019-05-03T20:03:20.966Z,6.27
2019-05-03T20:05:56.888Z,4.17
2019-05-03T20:08:35.070Z,3.80
2019-05-03T20:11:17.370Z,3.90
2019-05-03T20:13:48.155Z,4.23
2019-05-03T20:16:17.400Z,4.30
2019-05-03T20:18:46.639Z,4.03
2019-05-03T20:21:15.884Z,3.93
2019-05-03T20:23:47.510Z,4.60
2019-05-03T20:26:16.752Z,5.40
2019-05-03T20:28:45.998Z,4.20
2019-05-03T20:31:15.268Z,4.27
2019-05-03T20:33:45.778Z,4.00
2019-05-03T20:36:17.533Z,4.43
2019-05-03T20:38:46.760Z,5.30
2019-05-03T20:41:17.467Z,5.20
2019-05-03T20:44:05.289Z,4.83
2019-05-03T20:47:09.998Z,4.80
2019-05-03T20:49:39.222Z,5.80
2019-05-03T20:52:08.460Z,5.67
2019-05-03T20:54:37.710Z,5.53
2019-05-03T20:57:07.250Z,4.80
2019-05-03T20:59:45.895Z,5.00
2019-05-03T21:02:07.802Z,5.10
2019-05-03T21:04:37.019Z,7.60
2019-05-03T21:07:06.341Z,6.87
2019-05-03T21:09:36.293Z,5.07
2019-05-03T21:12:05.561Z,5.37
2019-05-03T21:14:36.778Z,6.30
2019-05-03T21:17:28.259Z,6.20
2019-05-03T21:20:08.549Z,10.07
2019-05-03T21:22:44.457Z,7.00
2019-05-03T21:25:24.921Z,5.33
2019-05-03T21:27:55.516Z,5.43
2019-05-03T21:30:25.349Z,8.20
2019-05-03T21:32:56.991Z,7.60
2019-05-03T21:35:38.689Z,7.20
2019-05-03T21:37:57.163Z,8.27
2019-05-03T21:40:26.379Z,6.87
2019-05-03T21:42:55.623Z,6.90
2019-05-03T21:45:29.851Z,6.80
2019-05-03T21:48:21.175Z,6.57
2019-05-03T21:50:52.132Z,6.30
2019-05-03T21:53:22.316Z,7.53
2019-05-03T21:55:51.541Z,6.80
2019-05-03T21:58:24.996Z,6.10
2019-05-03T22:01:05.090Z,6.47
2019-05-03T22:03:35.487Z,6.37
2019-05-03T22:06:05.340Z,6.63
2019-05-03T22:08:35.074Z,6.50
2019-05-03T22:11:05.352Z,7.57
2019-05-03T22:13:35.047Z,10.43
2019-05-03T22:16:18.055Z,8.23
2019-05-03T22:18:48.532Z,7.40
2019-05-03T22:21:44.816Z,7.23
2019-05-03T22:24:32.711Z,7.63
2019-05-03T22:27:06.970Z,7.70
2019-05-03T22:29:35.927Z,7.80
2019-05-03T22:32:05.505Z,7.20
2019-05-03T22:34:35.005Z,7.40
2019-05-03T22:37:04.528Z,8.10
2019-05-03T22:39:33.943Z,7.67
2019-05-03T22:42:04.504Z,7.03
2019-05-03T22:44:35.607Z,7.63
2019-05-03T22:47:05.649Z,7.57
2019-05-03T22:49:37.319Z,7.73
2019-05-03T22:52:06.187Z,7.70
2019-05-03T22:54:35.665Z,7.30
2019-05-03T22:57:05.851Z,7.43
2019-05-03T22:59:35.201Z,7.47
2019-05-03T23:02:04.419Z,8.20
2019-05-03T23:04:35.447Z,7.90
2019-05-03T23:07:05.559Z,7.70
2019-05-03T23:09:35.316Z,7.40
2019-05-03T23:12:05.525Z,7.07
2019-05-03T23:14:34.927Z,6.50
2019-05-03T23:17:04.197Z,7.07
2019-05-03T23:19:35.320Z,6.93
2019-05-03T23:22:15.400Z,6.30
2019-05-03T23:24:44.635Z,7.27
2019-05-03T23:27:14.448Z,7.20
2019-05-03T23:29:45.411Z,6.70
2019-05-03T23:32:17.312Z,6.97
2019-05-03T23:34:46.581Z,7.40
2019-05-03T23:37:15.798Z,7.57
2019-05-03T23:39:45.033Z,7.77
2019-05-03T23:42:15.483Z,6.50
2019-05-03T23:44:45.689Z,7.57
2019-05-03T23:47:25.632Z,7.27
2019-05-03T23:49:55.389Z,8.60
2019-05-03T23:52:37.505Z,6.90
2019-05-03T23:55:34.456Z,6.47
2019-05-03T23:58:04.883Z,6.73
